Aviation Digital Data Service (ADDS)

Output produced by METARs form (1142 UTC 25 October 2020)
found at http://aviationweather.gov/metar/data/
 
METAR text: ETMN 251136Z 21007KT 3000 DZRA SCT012 BKN020 12/10 Q1001 YLO
Conditions at: ETMN (NORDHOLZ (GER-NA, DE) observed 1136 UTC 25 October 2020
Temperature: 12.0°C (54°F)
Dewpoint: 10.0°C (50°F) [RH = 88%]
Pressure (altimeter): 29.56 inches Hg (1001.0 mb)
Winds: from the SSW (210 degrees) at 8 MPH (7 knots; 3.6 m/s)
Visibility: 1.86 miles (2.99 km)
Ceiling: 2000 feet AGL
Clouds: scattered clouds at 1200 feet AGL
broken clouds at 2000 feet AGL
Weather: DZ RA  (moderate drizzle, moderate rain)

METAR text: ETMN 251132Z 20007KT 4500 -DZRA SCT012 BKN025 12/10 Q1001 GRN
Conditions at: ETMN (NORDHOLZ (GER-NA, DE) observed 1132 UTC 25 October 2020
Temperature: 12.0°C (54°F)
Dewpoint: 10.0°C (50°F) [RH = 88%]
Pressure (altimeter): 29.56 inches Hg (1001.0 mb)
Winds: from the SSW (200 degrees) at 8 MPH (7 knots; 3.6 m/s)
Visibility: 2.80 miles (4.51 km)
Ceiling: 2500 feet AGL
Clouds: scattered clouds at 1200 feet AGL
broken clouds at 2500 feet AGL
Weather: -DZ -RA  (light drizzle, light rain)

METAR text: ETMN 251120Z 20007KT 9999 -RA FEW012 BKN028 BKN070 12/10 Q1001 BLU
Conditions at: ETMN (NORDHOLZ (GER-NA, DE) observed 1120 UTC 25 October 2020
Temperature: 12.0°C (54°F)
Dewpoint: 10.0°C (50°F) [RH = 88%]
Pressure (altimeter): 29.56 inches Hg (1001.0 mb)
Winds: from the SSW (200 degrees) at 8 MPH (7 knots; 3.6 m/s)
Visibility: 6 or more miles (10+ km)
Ceiling: 2800 feet AGL
Clouds: few clouds at 1200 feet AGL
broken clouds at 2800 feet AGL
broken clouds at 7000 feet AGL
Weather: -RA  (light rain)